Time;durP1;ratioP1;P1;durP2;ratioP2;P2;SDS_P1;SDS_P2;PMS_P1;PMS_P2;Temp;Humidity;BMP_temperature;BMP_pressure;BME280_temperature;BME280_humidity;BME280_pressure;Samples;Min_cycle;Max_cycle;Signal;HPM_P1;HPM_P2
2021/12/04 00:01:46;;;;;;;7.25;2.83;;;;;;;2.21;86.13;98643.91;8288383;28;20042;-81
2021/12/04 00:05:55;;;;;;;5.03;2.17;;;;;;;2.23;83.83;98644.53;8267831;28;20101;-82
2021/12/04 00:10:01;;;;;;;6.85;2.60;;;;;;;2.31;83.90;98618.91;8296435;28;20045;-83
2021/12/04 00:14:01;;;;;;;7.97;2.42;;;;;;;2.37;81.52;98615.31;8293709;28;20046;-81
2021/12/04 00:18:02;;;;;;;5.68;2.28;;;;;;;2.51;81.84;98616.00;8294185;28;20065;-83
2021/12/04 00:22:03;;;;;;;4.70;2.25;;;;;;;2.51;80.93;98586.09;8295140;28;20045;-82
2021/12/04 00:26:05;;;;;;;4.35;2.28;;;;;;;2.58;80.97;98584.09;8299052;28;20119;-82
2021/12/04 00:30:06;;;;;;;4.82;2.47;;;;;;;2.57;78.43;98571.56;8287170;28;20046;-82
2021/12/04 00:34:08;;;;;;;4.03;2.10;;;;;;;2.60;77.99;98552.06;8289408;28;20105;-82
2021/12/04 00:56:53;;;;;;;5.43;2.35;;;;;;;2.82;76.46;98532.53;8275948;28;20074;-83
2021/12/04 01:00:53;;;;;;;6.93;2.20;;;;;;;2.81;76.15;98530.88;8305840;28;20030;-82
2021/12/04 01:04:54;;;;;;;6.75;2.40;;;;;;;2.71;76.96;98537.72;8281923;28;20042;-82
2021/12/04 01:08:54;;;;;;;4.27;2.20;;;;;;;2.76;79.21;98538.91;8290138;28;20045;-83
2021/12/04 01:13:00;;;;;;;7.43;2.00;;;;;;;2.69;81.95;98544.44;8281844;28;20281;-81
2021/12/04 01:17:00;;;;;;;6.10;2.40;;;;;;;2.50;84.33;98532.78;8297871;28;20185;-82
2021/12/04 01:21:00;;;;;;;5.90;2.58;;;;;;;2.35;86.20;98535.88;8277526;28;20118;-82
2021/12/04 01:25:02;;;;;;;6.23;2.07;;;;;;;2.21;87.16;98520.78;8288623;28;20041;-83
2021/12/04 01:29:03;;;;;;;5.63;2.13;;;;;;;2.03;88.48;98510.75;8268857;28;20293;-82
2021/12/04 01:38:25;;;;;;;3.85;2.30;;;;;;;1.88;89.84;98491.28;8293182;28;20107;-84
2021/12/04 01:42:27;;;;;;;5.30;2.33;;;;;;;1.88;90.65;98491.28;8283576;28;20050;-85
2021/12/04 01:46:28;;;;;;;5.22;2.38;;;;;;;1.82;91.39;98491.13;8272723;28;20057;-85
2021/12/04 01:50:30;;;;;;;5.93;2.50;;;;;;;1.76;92.25;98481.16;8288975;28;20037;-84
2021/12/04 01:54:30;;;;;;;7.55;2.47;;;;;;;1.80;93.11;98476.09;8250978;28;20088;-84
2021/12/04 01:58:31;;;;;;;4.38;2.10;;;;;;;1.68;94.95;98462.44;8268484;28;20057;-83
2021/12/04 02:02:31;;;;;;;4.43;2.58;;;;;;;1.72;97.21;98455.50;8284190;28;20045;-82
2021/12/04 02:06:32;;;;;;;4.40;2.42;;;;;;;1.69;99.19;98453.22;8283402;28;20403;-82
2021/12/04 02:10:33;;;;;;;4.85;2.33;;;;;;;1.72;99.45;98447.34;8267883;28;20045;-82
2021/12/04 02:14:39;;;;;;;5.32;2.28;;;;;;;1.78;100.00;98442.91;8255859;28;20095;-82
2021/12/04 02:18:40;;;;;;;5.82;2.42;;;;;;;1.85;100.00;98429.25;8293192;28;20065;-82
2021/12/04 02:22:40;;;;;;;5.30;2.20;;;;;;;1.78;100.00;98419.28;8285984;28;20517;-83
2021/12/04 02:26:41;;;;;;;7.60;2.70;;;;;;;1.72;100.00;98420.19;8297910;28;20048;-81
2021/12/04 02:30:45;;;;;;;3.50;2.17;;;;;;;1.66;100.00;98417.56;8284144;28;20037;-81
2021/12/04 02:34:46;;;;;;;6.95;2.20;;;;;;;1.60;100.00;98420.09;8301804;28;20050;-81
2021/12/04 02:38:51;;;;;;;7.00;2.90;;;;;;;1.53;100.00;98413.94;8261714;28;20741;-81
2021/12/04 02:42:51;;;;;;;5.03;2.78;;;;;;;1.50;100.00;98400.81;8268864;28;20091;-81
2021/12/04 02:46:51;;;;;;;5.67;2.67;;;;;;;1.40;100.00;98405.09;8285554;28;20100;-80
2021/12/04 02:50:52;;;;;;;8.67;3.10;;;;;;;1.36;100.00;98383.84;8288157;28;20285;-80
2021/12/04 02:54:52;;;;;;;6.03;3.03;;;;;;;1.37;100.00;98373.84;8282784;28;20277;-81
2021/12/04 02:59:00;;;;;;;6.45;2.97;;;;;;;1.31;100.00;98370.13;8289934;28;20076;-82
2021/12/04 03:03:02;;;;;;;8.15;3.65;;;;;;;1.33;100.00;98356.31;8282687;28;20054;-81
2021/12/04 03:07:03;;;;;;;8.15;2.85;;;;;;;1.43;100.00;98336.78;8281267;28;20049;-80
2021/12/04 03:11:03;;;;;;;7.00;3.17;;;;;;;1.44;100.00;98338.47;8287214;28;20487;-81
2021/12/04 03:15:04;;;;;;;6.43;3.20;;;;;;;1.46;100.00;98328.19;8284566;28;20570;-82
2021/12/04 03:19:06;;;;;;;6.25;2.90;;;;;;;1.44;100.00;98308.59;8292304;28;20661;-81
2021/12/04 03:23:12;;;;;;;3.95;2.20;;;;;;;1.53;100.00;98315.38;8287027;28;20057;-82
2021/12/04 03:27:16;;;;;;;4.55;2.30;;;;;;;1.54;100.00;98314.31;8268236;28;20069;-83
2021/12/04 03:31:24;;;;;;;4.38;2.13;;;;;;;1.50;100.00;98303.09;8274802;28;20049;-82
2021/12/04 03:44:02;;;;;;;2.28;1.13;;;;;;;1.55;100.00;98292.38;8284320;28;20137;-82
2021/12/04 03:48:10;;;;;;;2.05;1.13;;;;;;;1.66;100.00;98281.78;8282157;28;20046;-81
2021/12/04 03:52:10;;;;;;;2.65;1.20;;;;;;;1.64;100.00;98282.03;8294357;28;20080;-81
2021/12/04 03:56:12;;;;;;;4.05;2.03;;;;;;;1.66;100.00;98279.91;8264631;28;20045;-81
2021/12/04 04:00:15;;;;;;;3.87;1.83;;;;;;;1.73;100.00;98271.69;8278000;28;20042;-81
2021/12/04 04:04:16;;;;;;;6.20;2.90;;;;;;;1.78;100.00;98259.03;8279611;28;20487;-80
2021/12/04 04:08:17;;;;;;;7.07;3.07;;;;;;;1.85;100.00;98264.41;8282845;28;20142;-80
2021/12/04 04:12:17;;;;;;;7.70;3.13;;;;;;;1.90;100.00;98255.53;8288588;28;20343;-81
2021/12/04 04:16:18;;;;;;;5.93;2.67;;;;;;;1.95;100.00;98245.63;8279982;28;20042;-82
2021/12/04 04:20:20;;;;;;;10.15;3.38;;;;;;;1.97;100.00;98243.53;8272237;28;20050;-82
2021/12/04 04:24:21;;;;;;;6.38;3.40;;;;;;;1.97;100.00;98242.69;8274032;28;20054;-82
2021/12/04 04:28:21;;;;;;;6.55;2.83;;;;;;;2.07;100.00;98242.13;8285681;28;20498;-82
2021/12/04 04:32:24;;;;;;;4.32;2.83;;;;;;;2.10;100.00;98237.03;8283188;28;20091;-81
2021/12/04 05:02:21;;;;;;;5.95;2.72;;;;;;;2.51;100.00;98199.97;8273109;28;20511;-82
2021/12/04 05:15:02;;;;;;;5.93;2.80;;;;;;;2.72;100.00;98187.66;8286392;28;20073;-81
2021/12/04 05:19:12;;;;;;;5.47;2.50;;;;;;;2.79;100.00;98187.50;8272940;28;20093;-82
2021/12/04 05:23:12;;;;;;;4.97;2.60;;;;;;;2.83;100.00;98186.81;8288512;28;20464;-81
2021/12/04 05:27:13;;;;;;;6.22;2.67;;;;;;;2.82;100.00;98184.31;8287335;28;20109;-82
2021/12/04 05:31:16;;;;;;;5.47;2.80;;;;;;;2.81;100.00;98177.22;8266645;28;20030;-81
2021/12/04 05:35:16;;;;;;;5.78;2.50;;;;;;;2.84;100.00;98172.13;8248872;28;20042;-82
2021/12/04 05:39:17;;;;;;;4.53;2.42;;;;;;;2.87;100.00;98176.28;8285157;28;20045;-82
2021/12/04 05:43:22;;;;;;;4.32;2.47;;;;;;;2.91;100.00;98155.66;8290252;28;20093;-82
2021/12/04 05:47:31;;;;;;;4.97;2.35;;;;;;;2.95;100.00;98151.41;8281686;28;20053;-82
2021/12/04 05:55:55;;;;;;;4.30;2.58;;;;;;;3.08;100.00;98144.84;8266481;28;20451;-82
2021/12/04 05:59:55;;;;;;;3.90;2.20;;;;;;;3.14;100.00;98142.00;8272027;28;20041;-82
2021/12/04 06:03:56;;;;;;;3.93;2.33;;;;;;;3.18;100.00;98135.00;8275159;28;20070;-81
2021/12/04 06:07:56;;;;;;;4.82;2.28;;;;;;;3.20;100.00;98129.31;8267863;28;20284;-81
2021/12/04 06:12:04;;;;;;;3.78;2.03;;;;;;;3.22;100.00;98124.44;8289481;28;20573;-81
2021/12/04 06:16:05;;;;;;;4.38;2.22;;;;;;;3.28;100.00;98118.03;8271998;28;20042;-81
2021/12/04 06:24:26;;;;;;;3.20;1.70;;;;;;;3.33;100.00;98117.28;8284248;28;20041;-81
2021/12/04 06:28:26;;;;;;;4.13;2.05;;;;;;;3.38;100.00;98111.94;8284051;28;20128;-81
2021/12/04 06:32:28;;;;;;;3.97;1.40;;;;;;;3.45;100.00;98111.78;8291066;28;20156;-82
2021/12/04 06:36:29;;;;;;;3.92;1.90;;;;;;;3.49;100.00;98108.34;8257525;28;20072;-82
2021/12/04 06:40:29;;;;;;;4.00;1.83;;;;;;;3.53;100.00;98114.09;8291465;28;20133;-81
2021/12/04 06:44:29;;;;;;;3.10;1.80;;;;;;;3.55;100.00;98103.81;8281210;28;20129;-81
2021/12/04 06:52:40;;;;;;;4.15;2.22;;;;;;;3.60;100.00;98079.38;8282320;28;20038;-82
2021/12/04 06:56:42;;;;;;;2.90;1.58;;;;;;;3.60;100.00;98082.94;8280412;28;20096;-82
2021/12/04 07:00:43;;;;;;;;;;;;;;;3.59;100.00;98092.16;8268975;28;20129;-80
2021/12/04 07:04:43;;;;;;;4.73;2.30;;;;;;;3.56;100.00;98087.19;8267054;28;20391;-81
2021/12/04 07:08:43;;;;;;;4.78;2.45;;;;;;;3.54;100.00;98089.38;8280328;28;20042;-82
2021/12/04 07:12:44;;;;;;;6.37;3.07;;;;;;;3.56;100.00;98089.09;8288839;28;20037;-82
2021/12/04 07:16:45;;;;;;;7.88;3.80;;;;;;;3.42;100.00;98091.31;8286774;28;20403;-82
2021/12/04 07:20:45;;;;;;;8.88;4.28;;;;;;;3.38;100.00;98084.72;8283808;28;20062;-82
2021/12/04 07:24:45;;;;;;;8.23;4.35;;;;;;;3.35;100.00;98087.94;8293108;28;20119;-81
2021/12/04 07:28:46;;;;;;;9.85;4.90;;;;;;;3.38;100.00;98090.97;8283283;28;20069;-80
2021/12/04 07:32:47;;;;;;;9.02;4.97;;;;;;;3.37;100.00;98083.91;8275596;28;20238;-81
2021/12/04 07:36:47;;;;;;;10.20;5.35;;;;;;;3.29;100.00;98086.19;8274127;28;20038;-82
2021/12/04 07:40:47;;;;;;;58.92;21.83;;;;;;;3.27;100.00;98086.44;8285007;28;20483;-82
2021/12/04 07:44:48;;;;;;;11.18;6.15;;;;;;;3.25;100.00;98085.03;8252566;28;20137;-84
2021/12/04 07:48:48;;;;;;;14.10;6.70;;;;;;;3.32;100.00;98088.41;8270841;28;20086;-84
2021/12/04 07:52:49;;;;;;;11.48;5.78;;;;;;;3.36;100.00;98097.75;8277353;28;20336;-82
2021/12/04 07:56:50;;;;;;;11.68;6.07;;;;;;;3.38;100.00;98093.69;8266158;28;20045;-80
2021/12/04 08:00:50;;;;;;;12.95;6.43;;;;;;;3.35;100.00;98090.66;8283631;28;20914;-81
2021/12/04 08:04:51;;;;;;;18.77;7.22;;;;;;;3.41;100.00;98079.59;8283912;28;20042;-81
2021/12/04 08:08:53;;;;;;;16.20;6.68;;;;;;;3.48;100.00;98076.75;8294810;28;20037;-80
2021/12/04 08:12:54;;;;;;;17.40;8.02;;;;;;;3.54;100.00;98075.75;8282601;28;20455;-80
2021/12/04 08:16:54;;;;;;;12.13;6.30;;;;;;;3.62;100.00;98072.59;8255459;28;20048;-79
2021/12/04 08:20:55;;;;;;;13.60;6.18;;;;;;;3.71;100.00;98064.00;8275899;28;20040;-80
2021/12/04 08:24:55;;;;;;;14.18;6.45;;;;;;;3.74;100.00;98058.06;8277761;28;20042;-80
2021/12/04 08:28:56;;;;;;;13.80;6.50;;;;;;;3.81;100.00;98051.38;8288688;28;20044;-80
2021/12/04 08:32:56;;;;;;;11.65;6.03;;;;;;;3.92;100.00;98056.97;8243200;28;20137;-80
2021/12/04 08:36:57;;;;;;;14.35;6.05;;;;;;;4.01;100.00;98048.13;8277140;28;20065;-80
2021/12/04 08:40:57;;;;;;;12.98;6.18;;;;;;;4.08;100.00;98056.16;8295782;28;20049;-79
2021/12/04 08:44:58;;;;;;;11.38;5.90;;;;;;;4.14;100.00;98052.41;8286559;28;20546;-81
2021/12/04 08:48:58;;;;;;;13.15;5.60;;;;;;;4.16;100.00;98054.88;8278232;28;20046;-80
2021/12/04 08:53:01;;;;;;;11.07;5.30;;;;;;;4.21;100.00;98050.31;8305078;28;20046;-81
2021/12/04 08:57:01;;;;;;;9.73;5.15;;;;;;;4.22;100.00;98051.13;8286644;28;20281;-80
2021/12/04 09:01:05;;;;;;;11.30;5.05;;;;;;;4.32;100.00;98056.75;8299981;28;20046;-80
2021/12/04 09:05:09;;;;;;;16.23;6.45;;;;;;;4.37;100.00;98048.63;8281840;28;20149;-81
2021/12/04 09:09:12;;;;;;;14.43;5.53;;;;;;;4.38;100.00;98060.38;8292200;28;20037;-81
2021/12/04 09:13:13;;;;;;;;;;;;;;;4.39;100.00;98051.09;8281756;28;20042;-80
2021/12/04 09:17:16;;;;;;;11.90;5.43;;;;;;;4.44;100.00;98057.44;8283258;28;19957;-80
2021/12/04 09:21:17;;;;;;;;;;;;;;;4.47;100.00;98043.31;8290808;28;20104;-81
2021/12/04 09:25:22;;;;;;;12.75;6.70;;;;;;;4.50;100.00;98045.53;8280346;28;19917;-82
2021/12/04 10:34:10;;;;;;;8.00;4.35;;;;;;;5.62;100.00;97957.59;8270240;28;20050;-81
2021/12/04 10:38:20;;;;;;;8.07;3.80;;;;;;;5.60;100.00;97946.13;8273667;28;20738;-81
2021/12/04 10:42:25;;;;;;;6.95;3.47;;;;;;;5.66;100.00;97934.13;8269809;28;20046;-80
2021/12/04 10:46:26;;;;;;;5.22;3.10;;;;;;;5.80;100.00;97929.00;8254133;28;20081;-81
2021/12/04 10:50:37;;;;;;;4.40;2.90;;;;;;;5.86;100.00;97917.84;8276459;28;20121;-81
2021/12/04 10:54:40;;;;;;;8.27;3.53;;;;;;;5.91;100.00;97919.78;8275666;28;20100;-82
2021/12/04 11:04:13;;;;;;;7.18;4.53;;;;;;;5.87;100.00;97903.09;8284518;28;20054;-81
2021/12/04 11:25:59;;;;;;;6.63;4.00;;;;;;;5.93;100.00;97846.56;8283152;28;20049;-80
2021/12/04 11:43:04;;;;;;;10.32;4.30;;;;;;;6.19;100.00;97808.34;8283151;28;20431;-80
2021/12/04 11:47:04;;;;;;;5.75;3.15;;;;;;;6.24;100.00;97803.69;8287439;28;20050;-81
2021/12/04 11:51:13;;;;;;;6.22;3.40;;;;;;;6.32;100.00;97800.44;8278618;28;20038;-81
2021/12/04 11:55:16;;;;;;;8.45;3.55;;;;;;;6.44;100.00;97788.41;8253978;28;20142;-81
2021/12/04 11:59:26;;;;;;;5.05;3.10;;;;;;;6.52;100.00;97785.16;8266301;28;20077;-81
2021/12/04 12:03:33;;;;;;;5.40;3.40;;;;;;;6.52;100.00;97768.72;8279804;28;20423;-80
2021/12/04 12:07:34;;;;;;;5.05;3.28;;;;;;;6.51;100.00;97769.81;8280192;28;20050;-79
2021/12/04 12:11:35;;;;;;;5.00;3.30;;;;;;;6.50;100.00;97762.69;8277741;28;20120;-80
2021/12/04 12:15:36;;;;;;;15.20;4.50;;;;;;;6.56;100.00;97748.75;8260880;28;20407;-80
2021/12/04 12:19:41;;;;;;;8.43;3.65;;;;;;;6.60;100.00;97751.75;8284058;28;20088;-81
2021/12/04 12:36:56;;;;;;;8.68;4.20;;;;;;;6.50;100.00;97724.41;8270234;28;20042;-80
2021/12/04 12:41:23;;;;;;;7.80;5.05;;;;;;;6.53;100.00;97704.69;8286725;28;20064;-81
2021/12/04 12:45:32;;;;;;;8.13;4.60;;;;;;;6.57;100.00;97708.50;8282343;28;20080;-81
2021/12/04 12:49:42;;;;;;;10.20;5.25;;;;;;;6.58;100.00;97699.22;8274864;28;20041;-81
2021/12/04 12:53:46;;;;;;;9.43;5.40;;;;;;;6.50;100.00;97692.38;8286176;28;20048;-81
2021/12/04 12:57:48;;;;;;;9.50;5.55;;;;;;;6.44;100.00;97692.66;8271440;28;20414;-82
2021/12/04 13:15:00;;;;;;;11.93;6.60;;;;;;;6.09;100.00;97681.44;8287047;28;20065;-82
2021/12/04 13:19:08;;;;;;;15.15;7.75;;;;;;;6.01;100.00;97681.16;8291965;28;20113;-81
2021/12/04 13:23:14;;;;;;;13.60;7.57;;;;;;;5.93;100.00;97672.41;8283474;28;20034;-81
2021/12/04 13:31:19;;;;;;;17.73;9.48;;;;;;;5.93;100.00;97656.03;8285483;28;20050;-82
2021/12/04 13:35:46;;;;;;;17.45;9.45;;;;;;;5.99;100.00;97654.13;8279945;28;20057;-81
2021/12/04 13:39:47;;;;;;;15.18;8.77;;;;;;;6.05;100.00;97646.72;8277747;28;20113;-81
2021/12/04 13:43:56;;;;;;;16.75;9.70;;;;;;;6.05;100.00;97654.94;8278944;28;20823;-81
2021/12/04 13:47:58;;;;;;;17.60;9.60;;;;;;;6.02;100.00;97648.09;8283926;28;20041;-82
2021/12/04 13:52:02;;;;;;;18.65;9.70;;;;;;;5.99;100.00;97647.81;8288639;28;20129;-81
2021/12/04 13:56:08;;;;;;;18.90;8.70;;;;;;;5.89;100.00;97654.09;8286577;28;20050;-81
2021/12/04 14:00:11;;;;;;;17.08;9.15;;;;;;;5.76;100.00;97666.34;8285242;28;20042;-80
2021/12/04 14:04:16;;;;;;;15.38;7.10;;;;;;;5.64;100.00;97687.66;8284104;28;20042;-81
2021/12/04 14:08:17;;;;;;;21.50;8.05;;;;;;;5.44;100.00;97705.63;8282197;28;20050;-83
2021/12/04 14:12:22;;;;;;;16.60;7.22;;;;;;;5.23;100.00;97717.53;8298740;28;20058;-83
2021/12/04 14:16:25;;;;;;;13.77;5.85;;;;;;;5.03;100.00;97696.44;8284599;28;20041;-84
2021/12/04 14:20:26;;;;;;;9.48;4.35;;;;;;;4.89;100.00;97654.34;8279822;28;20046;-83
2021/12/04 14:24:33;;;;;;;16.00;4.72;;;;;;;4.85;100.00;97642.31;8287482;28;20100;-84
2021/12/04 14:28:38;;;;;;;8.90;4.50;;;;;;;4.82;100.00;97640.94;8269321;28;20068;-81
2021/12/04 14:32:40;;;;;;;9.55;4.13;;;;;;;4.74;100.00;97638.72;8287896;28;20038;-81
2021/12/04 14:36:41;;;;;;;7.30;3.50;;;;;;;4.73;100.00;97593.41;8276193;28;20053;-80
2021/12/04 14:40:51;;;;;;;13.30;4.90;;;;;;;4.74;100.00;97595.88;8289718;28;20037;-81
2021/12/04 14:44:58;;;;;;;9.75;3.75;;;;;;;4.75;100.00;97547.59;8257392;28;20084;-82
2021/12/04 14:49:04;;;;;;;5.55;2.97;;;;;;;4.72;100.00;97576.22;8281862;28;20558;-81
2021/12/04 14:53:07;;;;;;;6.65;3.13;;;;;;;4.75;100.00;97624.81;8281161;28;20050;-81
2021/12/04 14:57:17;;;;;;;8.38;4.05;;;;;;;4.80;100.00;97640.38;8276446;28;20050;-80
2021/12/04 15:01:23;;;;;;;11.68;5.53;;;;;;;4.78;100.00;97651.56;8299592;28;20470;-80
2021/12/04 15:05:37;;;;;;;11.88;4.95;;;;;;;4.74;100.00;97649.63;8277828;28;20581;-81
2021/12/04 15:09:38;;;;;;;15.25;5.63;;;;;;;4.67;100.00;97654.50;8283350;28;20383;-80
2021/12/04 15:13:45;;;;;;;10.57;5.40;;;;;;;4.61;100.00;97658.28;8290727;28;20042;-79
2021/12/04 15:18:00;;;;;;;15.98;5.97;;;;;;;4.63;100.00;97653.38;8283407;28;20285;-81
2021/12/04 15:22:02;;;;;;;16.00;6.28;;;;;;;4.55;100.00;97657.41;8276867;28;20048;-80
2021/12/04 15:26:11;;;;;;;22.80;7.10;;;;;;;4.60;100.00;97648.47;8296683;28;20053;-80
2021/12/04 15:30:15;;;;;;;203.38;20.63;;;;;;;4.56;100.00;97653.63;8281599;28;20034;-79
2021/12/04 15:34:16;;;;;;;95.40;13.73;;;;;;;4.51;100.00;97657.13;8279805;28;20042;-81
2021/12/04 15:38:35;;;;;;;108.95;15.43;;;;;;;4.43;100.00;97663.09;8291811;28;20077;-80
2021/12/04 15:42:56;;;;;;;71.55;11.65;;;;;;;4.43;100.00;97663.09;8288418;28;20102;-81
2021/12/04 15:55:56;;;;;;;73.63;13.52;;;;;;;4.38;100.00;97684.06;8279036;28;20494;-80
2021/12/04 15:59:58;;;;;;;24.33;7.93;;;;;;;4.37;100.00;97694.13;8280048;28;20109;-79
2021/12/04 16:03:59;;;;;;;68.83;12.43;;;;;;;4.40;100.00;97681.88;8270940;28;20062;-80
2021/12/04 16:08:22;;;;;;;31.88;8.77;;;;;;;4.38;100.00;97684.06;8278807;28;20108;-80
2021/12/04 16:12:26;;;;;;;65.10;12.20;;;;;;;4.38;100.00;97687.59;8289724;28;20046;-79
2021/12/04 16:16:29;;;;;;;214.50;23.27;;;;;;;4.27;100.00;97680.44;8283565;28;20085;-80
2021/12/04 16:20:31;;;;;;;98.97;14.25;;;;;;;4.22;100.00;97683.91;8269038;28;20050;-80
2021/12/04 16:24:32;;;;;;;44.70;12.27;;;;;;;4.25;100.00;97688.03;8281707;28;20058;-81
2021/12/04 16:29:19;;;;;;;66.38;14.82;;;;;;;4.21;100.00;97690.47;8288357;28;20402;-80
2021/12/04 16:37:45;;;;;;;142.77;22.75;;;;;;;4.31;100.00;97687.84;8234035;28;20050;-79
2021/12/04 16:41:49;;;;;;;70.70;14.23;;;;;;;4.34;100.00;97702.81;8293098;28;20463;-80
2021/12/04 16:45:53;;;;;;;247.50;27.08;;;;;;;4.28;100.00;97761.97;8291276;28;20034;-80
2021/12/04 16:49:55;;;;;;;122.85;14.55;;;;;;;4.01;100.00;97777.50;8270337;28;20046;-79
2021/12/04 16:58:25;;;;;;;43.42;11.43;;;;;;;3.55;100.00;97786.00;8266245;28;20052;-79
2021/12/04 17:02:27;;;;;;;38.40;12.38;;;;;;;3.48;100.00;97788.09;8295496;28;20034;-80
2021/12/04 17:06:34;;;;;;;35.35;11.20;;;;;;;3.48;100.00;97789.97;8279163;28;20044;-80
2021/12/04 17:10:36;;;;;;;27.70;10.57;;;;;;;3.54;100.00;97811.59;8288226;28;20045;-79
2021/12/04 17:14:37;;;;;;;31.98;9.80;;;;;;;3.64;100.00;97829.94;8273083;28;20050;-79
2021/12/04 17:18:46;;;;;;;35.35;11.15;;;;;;;3.70;100.00;97842.56;8272683;28;20129;-79
2021/12/04 17:22:50;;;;;;;27.92;10.05;;;;;;;3.77;100.00;97861.44;8297941;28;20491;-79
2021/12/04 17:26:51;;;;;;;26.63;10.35;;;;;;;3.73;100.00;97863.84;8289642;28;20572;-79
2021/12/04 17:30:51;;;;;;;35.35;11.43;;;;;;;3.75;100.00;97866.28;8289334;28;20402;-79
2021/12/04 17:34:53;;;;;;;36.25;11.70;;;;;;;3.70;100.00;97868.97;8281196;28;20057;-79
2021/12/04 17:38:54;;;;;;;37.88;11.52;;;;;;;3.72;100.00;97884.00;8281542;28;20041;-79
2021/12/04 17:42:54;;;;;;;34.05;13.18;;;;;;;3.66;100.00;97898.63;8291431;28;20030;-79
2021/12/04 17:46:56;;;;;;;42.00;14.88;;;;;;;3.64;100.00;97907.03;8282834;28;20814;-79
2021/12/04 17:50:59;;;;;;;33.67;11.40;;;;;;;3.68;100.00;97918.25;8290880;28;20041;-79
2021/12/04 17:54:59;;;;;;;;;;;;;;;3.73;100.00;97917.50;8288021;28;20050;-79
2021/12/04 17:59:00;;;;;;;26.27;9.80;;;;;;;3.75;100.00;97912.59;8273133;28;19948;-79
2021/12/04 18:03:04;;;;;;;24.75;9.18;;;;;;;3.76;100.00;97927.91;8280519;28;20057;-79
2021/12/04 18:07:10;;;;;;;18.88;8.68;;;;;;;3.75;100.00;97931.66;8298993;28;20057;-79
2021/12/04 18:11:15;;;;;;;17.13;7.85;;;;;;;3.72;100.00;97940.34;8296274;28;20044;-78
2021/12/04 18:15:32;;;;;;;15.05;6.30;;;;;;;3.75;100.00;97948.00;8289256;28;20077;-79
2021/12/04 18:19:34;;;;;;;16.10;7.50;;;;;;;3.82;100.00;97948.69;8282837;28;20140;-79
2021/12/04 18:23:36;;;;;;;13.55;5.90;;;;;;;3.88;100.00;97955.84;8292573;28;20133;-79
2021/12/04 18:27:36;;;;;;;12.82;5.47;;;;;;;3.94;100.00;97960.28;8282574;28;20379;-79
2021/12/04 18:31:41;;;;;;;10.50;5.38;;;;;;;3.92;100.00;97978.78;8291346;28;20038;-79
2021/12/04 18:35:42;;;;;;;11.40;5.85;;;;;;;3.94;100.00;97973.09;8279695;28;20045;-78
2021/12/04 18:39:43;;;;;;;10.35;5.25;;;;;;;4.00;100.00;97999.34;8273886;28;20590;-79
2021/12/04 18:43:46;;;;;;;9.52;5.05;;;;;;;4.01;100.00;98018.13;8282432;28;20042;-79
2021/12/04 18:47:50;;;;;;;9.77;5.03;;;;;;;4.10;100.00;98049.38;8288432;28;20039;-78
2021/12/04 18:51:53;;;;;;;9.30;4.35;;;;;;;4.12;100.00;98068.19;8273114;28;20046;-78
2021/12/04 18:55:53;;;;;;;6.85;3.78;;;;;;;4.20;100.00;98069.66;8289494;28;20517;-79
2021/12/04 18:59:53;;;;;;;4.93;2.58;;;;;;;4.23;100.00;98069.16;8290752;28;20076;-80
2021/12/04 19:03:54;;;;;;;10.25;3.35;;;;;;;4.30;100.00;98069.78;8268220;28;20073;-79
2021/12/04 19:07:55;;;;;;;4.50;2.47;;;;;;;4.30;100.00;98067.06;8286517;28;20038;-80
2021/12/04 19:12:00;;;;;;;4.07;2.17;;;;;;;4.31;100.00;98068.72;8268101;28;20038;-80
2021/12/04 19:16:01;;;;;;;4.45;1.52;;;;;;;4.33;100.00;98063.84;8269243;28;20072;-80
2021/12/04 19:20:05;;;;;;;3.20;1.73;;;;;;;4.39;100.00;98054.66;8285349;28;20042;-78
2021/12/04 19:24:06;;;;;;;2.17;1.20;;;;;;;4.43;100.00;98060.41;8269551;28;20092;-78
2021/12/04 19:28:09;;;;;;;2.55;1.15;;;;;;;4.47;100.00;98059.66;8269973;28;20414;-78
2021/12/04 19:32:16;;;;;;;2.72;1.05;;;;;;;4.37;100.00;98069.59;8289952;28;20033;-79
2021/12/04 19:57:49;;;;;;;1.98;0.90;;;;;;;4.52;100.00;98113.44;8282667;28;20048;-79
2021/12/04 20:02:12;;;;;;;1.60;0.95;;;;;;;4.55;100.00;98124.69;8267010;28;20335;-79
2021/12/04 20:14:29;;;;;;;1.83;1.00;;;;;;;4.66;100.00;98150.19;8280310;28;20410;-78
2021/12/04 20:18:30;;;;;;;2.53;1.10;;;;;;;4.67;100.00;98151.88;8292480;28;20073;-77
2021/12/04 20:22:30;;;;;;;3.05;1.20;;;;;;;4.67;100.00;98156.47;8286515;28;20042;-79
2021/12/04 20:26:54;;;;;;;3.22;1.25;;;;;;;4.73;100.00;98163.66;8292918;28;20030;-79
2021/12/04 20:36:29;;;;;;;2.50;1.30;;;;;;;4.64;100.00;98200.63;8288186;28;20060;-80
2021/12/04 21:02:33;;;;;;;2.58;1.50;;;;;;;4.71;100.00;98255.88;8292223;28;20088;-79
2021/12/04 21:53:07;;;;;;;11.00;3.03;;;;;;;4.11;100.00;98312.69;8287849;28;20050;-80
2021/12/04 22:10:18;;;;;;;6.47;3.22;;;;;;;3.85;100.00;98305.94;8277899;28;20474;-79
2021/12/04 22:14:37;;;;;;;6.28;3.08;;;;;;;3.81;100.00;98323.03;8276738;28;20235;-79
2021/12/04 23:01:55;;;;;;;5.82;2.08;;;;;;;2.91;100.00;98389.66;8281476;28;20100;-79
2021/12/04 23:14:41;;;;;;;4.45;2.20;;;;;;;2.80;100.00;98417.69;8281840;28;20053;-81
2021/12/04 23:36:07;;;;;;;6.00;2.38;;;;;;;3.26;100.00;98433.22;8279978;28;20096;-81
